createdAt,value
2022-12-26T00:01:13.269Z,91.40
2022-12-26T00:03:41.763Z,91.40
2022-12-26T00:06:16.396Z,91.40
2022-12-26T00:08:45.293Z,91.40
2022-12-26T00:11:14.114Z,91.60
2022-12-26T00:13:43.104Z,91.90
2022-12-26T00:16:13.876Z,91.80
2022-12-26T00:18:43.051Z,91.80
2022-12-26T00:21:13.475Z,91.90
2022-12-26T00:23:43.907Z,91.90
2022-12-26T00:26:14.608Z,92.20
2022-12-26T00:28:43.528Z,92.20
2022-12-26T00:31:13.758Z,92.30
2022-12-26T00:33:42.433Z,92.20
2022-12-26T00:36:13.690Z,92.30
2022-12-26T00:38:44.477Z,92.50
2022-12-26T00:41:14.154Z,92.50
2022-12-26T00:43:42.822Z,92.60
2022-12-26T00:46:11.671Z,92.60
2022-12-26T00:48:40.036Z,92.60
2022-12-26T00:51:08.392Z,92.60
2022-12-26T00:53:36.935Z,92.80
2022-12-26T00:56:06.985Z,92.80
2022-12-26T00:58:35.427Z,92.90
2022-12-26T01:01:08.638Z,92.90
2022-12-26T01:03:37.036Z,92.90
2022-12-26T01:06:06.130Z,92.90
2022-12-26T01:08:34.389Z,92.70
2022-12-26T01:11:07.588Z,92.70
2022-12-26T01:13:36.666Z,92.80
2022-12-26T01:16:06.340Z,92.80
2022-12-26T01:18:35.979Z,92.90
2022-12-26T01:21:06.716Z,92.90
2022-12-26T01:23:35.140Z,92.90
2022-12-26T01:26:17.738Z,92.80
2022-12-26T01:28:49.862Z,92.80
2022-12-26T01:31:18.910Z,92.90
2022-12-26T01:33:47.316Z,92.80
2022-12-26T01:36:16.577Z,92.80
2022-12-26T01:38:45.248Z,92.70
2022-12-26T01:41:21.100Z,92.70
2022-12-26T01:43:55.285Z,92.60
2022-12-26T01:46:28.555Z,92.40
2022-12-26T01:49:00.793Z,92.30
2022-12-26T01:51:34.982Z,92.30
2022-12-26T01:54:40.937Z,92.20
2022-12-26T01:56:55.349Z,92.20
2022-12-26T01:59:27.955Z,92.10
2022-12-26T02:01:56.986Z,92.10
2022-12-26T02:04:52.569Z,92.00
2022-12-26T02:07:21.144Z,92.10
2022-12-26T02:09:49.571Z,92.10
2022-12-26T02:12:37.405Z,92.10
2022-12-26T02:15:12.530Z,92.10
2022-12-26T02:17:41.501Z,92.10
2022-12-26T02:20:19.899Z,92.20
2022-12-26T02:23:28.932Z,92.20
2022-12-26T02:26:26.552Z,92.20
2022-12-26T02:29:24.424Z,92.10
2022-12-26T02:32:01.383Z,92.10
2022-12-26T02:34:37.198Z,92.00
2022-12-26T02:37:23.374Z,91.90
2022-12-26T02:40:09.901Z,91.80
2022-12-26T02:42:48.909Z,91.70
2022-12-26T02:45:43.433Z,91.70
2022-12-26T02:48:18.251Z,91.60
2022-12-26T02:51:17.783Z,91.50
2022-12-26T02:54:11.438Z,91.60
2022-12-26T02:57:01.752Z,91.60
2022-12-26T02:59:57.374Z,91.70
2022-12-26T03:02:48.903Z,91.70
2022-12-26T03:05:51.840Z,91.70
2022-12-26T03:08:43.550Z,91.70
2022-12-26T03:11:29.592Z,91.70
2022-12-26T03:14:08.915Z,91.80
2022-12-26T03:16:54.782Z,91.70
2022-12-26T03:19:27.157Z,91.70
2022-12-26T03:21:58.619Z,91.70
2022-12-26T03:24:48.029Z,91.70
2022-12-26T03:27:15.305Z,91.60
2022-12-26T03:30:01.000Z,91.60
2022-12-26T03:32:29.310Z,91.50
2022-12-26T03:34:57.587Z,91.50
2022-12-26T03:37:50.389Z,91.70
2022-12-26T03:40:51.721Z,91.50
2022-12-26T03:43:46.097Z,91.40
2022-12-26T03:46:45.607Z,91.40
2022-12-26T03:49:39.858Z,91.20
2022-12-26T03:52:34.179Z,91.10
2022-12-26T03:55:29.409Z,91.00
2022-12-26T03:58:24.115Z,90.90
2022-12-26T04:01:13.027Z,90.80
2022-12-26T04:04:01.224Z,90.80
2022-12-26T04:06:52.601Z,90.70
2022-12-26T04:09:43.541Z,90.60
2022-12-26T04:12:36.048Z,91.00
2022-12-26T04:15:25.188Z,90.60
2022-12-26T04:18:16.602Z,90.60
2022-12-26T04:20:50.067Z,90.60
2022-12-26T04:23:41.042Z,90.50
2022-12-26T04:26:31.011Z,90.50
2022-12-26T04:29:18.265Z,91.00
2022-12-26T04:32:10.824Z,90.60
2022-12-26T04:35:03.058Z,90.60
2022-12-26T04:37:50.786Z,90.60
2022-12-26T04:40:42.084Z,90.60
2022-12-26T04:43:49.424Z,90.70
2022-12-26T04:46:20.608Z,90.80
2022-12-26T04:49:13.969Z,90.80
2022-12-26T04:51:42.218Z,90.80
2022-12-26T04:54:10.602Z,90.70
2022-12-26T04:56:39.081Z,90.70
2022-12-26T04:59:07.439Z,90.70
2022-12-26T05:01:54.656Z,90.70
2022-12-26T05:04:40.527Z,90.70
2022-12-26T05:07:33.560Z,90.60
2022-12-26T05:10:01.892Z,90.50
2022-12-26T05:12:30.170Z,90.70
2022-12-26T05:14:58.437Z,90.60
2022-12-26T05:17:45.984Z,90.60
2022-12-26T05:20:46.596Z,90.60
2022-12-26T05:23:38.764Z,90.50
2022-12-26T05:26:24.936Z,90.60
2022-12-26T05:28:57.000Z,90.50
2022-12-26T05:31:29.785Z,90.40
2022-12-26T05:34:07.847Z,90.40
2022-12-26T05:36:39.793Z,90.40
2022-12-26T05:39:09.322Z,90.20
2022-12-26T05:41:38.306Z,90.20
2022-12-26T05:44:06.888Z,90.10
2022-12-26T05:46:35.411Z,90.10
2022-12-26T05:49:06.055Z,90.00
2022-12-26T05:51:34.288Z,90.00
2022-12-26T05:54:02.589Z,89.90
2022-12-26T05:56:31.100Z,89.90
2022-12-26T05:59:01.212Z,89.90
2022-12-26T06:01:31.040Z,89.90
2022-12-26T06:04:01.284Z,89.90
2022-12-26T06:06:31.003Z,89.80
2022-12-26T06:08:59.339Z,89.80
2022-12-26T06:11:28.425Z,89.70
2022-12-26T06:13:57.009Z,89.50
2022-12-26T06:16:25.465Z,89.70
2022-12-26T06:18:55.504Z,89.70
2022-12-26T06:21:24.451Z,89.60
2022-12-26T06:23:54.111Z,89.60
2022-12-26T06:26:22.436Z,89.60
2022-12-26T06:28:50.736Z,89.80
2022-12-26T06:31:21.379Z,89.80
2022-12-26T06:33:51.567Z,89.80
2022-12-26T06:36:22.213Z,89.80
2022-12-26T06:38:51.621Z,89.90
2022-12-26T06:41:23.587Z,90.00
2022-12-26T06:43:52.165Z,90.00
2022-12-26T06:46:22.422Z,90.00
2022-12-26T06:48:50.876Z,90.00
2022-12-26T06:51:21.129Z,90.00
2022-12-26T06:54:02.864Z,90.10
2022-12-26T06:56:34.318Z,90.20
2022-12-26T06:59:04.798Z,90.10
2022-12-26T07:01:36.011Z,90.10
2022-12-26T07:04:04.832Z,90.20
2022-12-26T07:06:34.662Z,90.20
2022-12-26T07:09:05.194Z,90.20
2022-12-26T07:11:36.836Z,90.20
2022-12-26T07:14:05.796Z,90.30
2022-12-26T07:16:35.834Z,90.30
2022-12-26T07:19:04.295Z,90.30
2022-12-26T07:21:39.777Z,90.30
2022-12-26T07:24:14.886Z,90.30
2022-12-26T07:26:45.079Z,90.40
2022-12-26T07:29:16.724Z,90.40
2022-12-26T07:31:45.321Z,90.50
2022-12-26T07:34:13.598Z,90.50
2022-12-26T07:36:42.371Z,90.50
2022-12-26T07:39:10.836Z,90.40
2022-12-26T07:41:56.652Z,90.30
2022-12-26T07:44:26.817Z,90.20
2022-12-26T07:46:55.633Z,90.20
2022-12-26T07:49:24.285Z,90.10
2022-12-26T07:51:53.373Z,90.00
2022-12-26T07:54:21.874Z,90.00
2022-12-26T07:56:50.297Z,89.90
2022-12-26T07:59:19.384Z,89.80
2022-12-26T08:01:49.353Z,89.60
2022-12-26T08:04:20.742Z,89.70
2022-12-26T08:06:49.062Z,89.60
2022-12-26T08:09:17.595Z,89.70
2022-12-26T08:11:46.269Z,89.60
2022-12-26T08:14:16.805Z,89.40
2022-12-26T08:16:51.177Z,89.30
2022-12-26T08:19:22.730Z,89.10
2022-12-26T08:21:50.971Z,89.10
2022-12-26T08:24:19.428Z,89.00
2022-12-26T08:26:47.713Z,89.40
2022-12-26T08:29:16.101Z,89.40
2022-12-26T08:31:44.365Z,89.20
2022-12-26T08:34:39.876Z,89.30
2022-12-26T08:38:15.340Z,89.40
2022-12-26T08:40:45.204Z,89.50
2022-12-26T08:46:03.896Z,89.20
2022-12-26T08:48:32.921Z,88.80
2022-12-26T08:51:02.871Z,88.80
2022-12-26T08:53:35.812Z,88.90
2022-12-26T08:56:07.200Z,88.80
2022-12-26T08:58:35.930Z,88.80
2022-12-26T09:01:09.123Z,88.30
2022-12-26T09:03:37.497Z,88.50
2022-12-26T09:06:06.742Z,88.30
2022-12-26T09:08:36.422Z,88.50
2022-12-26T09:11:07.672Z,88.40
2022-12-26T09:13:36.806Z,88.50
2022-12-26T09:16:10.315Z,88.30
2022-12-26T09:18:39.066Z,87.40
2022-12-26T09:21:09.495Z,87.10
2022-12-26T09:23:38.865Z,87.40
2022-12-26T09:26:11.196Z,87.40
2022-12-26T09:28:39.849Z,86.70
2022-12-26T09:31:11.671Z,86.50
2022-12-26T09:33:40.283Z,84.30
2022-12-26T09:36:14.816Z,83.70
2022-12-26T09:38:43.940Z,83.90
2022-12-26T09:41:38.669Z,84.00
2022-12-26T09:44:16.412Z,84.10
2022-12-26T09:46:54.020Z,82.70
2022-12-26T09:49:25.438Z,83.50
2022-12-26T09:51:57.501Z,83.00
2022-12-26T09:54:32.876Z,82.80
2022-12-26T09:57:09.890Z,83.30
2022-12-26T09:59:48.244Z,82.70
2022-12-26T10:02:22.603Z,81.30
2022-12-26T10:04:51.619Z,81.50
2022-12-26T10:07:26.886Z,81.70
2022-12-26T10:10:06.175Z,81.70
2022-12-26T10:12:56.554Z,82.00
2022-12-26T10:15:45.078Z,82.00
2022-12-26T10:18:34.418Z,81.70
2022-12-26T10:21:19.342Z,80.20
2022-12-26T10:23:50.413Z,80.50
2022-12-26T10:26:22.761Z,80.30
2022-12-26T10:28:58.630Z,80.60
2022-12-26T10:31:31.224Z,80.30
2022-12-26T10:34:09.219Z,80.00
2022-12-26T10:36:43.063Z,80.30
2022-12-26T10:39:23.753Z,79.30
2022-12-26T10:41:54.700Z,78.80
2022-12-26T10:44:27.899Z,79.10
2022-12-26T10:47:19.259Z,78.70
2022-12-26T10:49:50.090Z,78.20
2022-12-26T10:52:21.307Z,78.00
2022-12-26T10:55:28.492Z,77.50
2022-12-26T10:57:45.916Z,77.80
2022-12-26T11:00:21.344Z,77.70
2022-12-26T11:03:05.494Z,77.80
2022-12-26T11:08:29.936Z,77.50
2022-12-26T11:11:07.600Z,77.80
2022-12-26T11:13:41.132Z,78.20
2022-12-26T11:16:11.441Z,78.20
2022-12-26T11:18:48.428Z,78.30
2022-12-26T11:21:24.010Z,78.80
2022-12-26T11:23:53.572Z,78.90
2022-12-26T11:26:49.558Z,79.60
2022-12-26T11:29:26.151Z,79.20
2022-12-26T11:32:01.678Z,79.40
2022-12-26T11:34:34.610Z,79.30
2022-12-26T11:37:03.315Z,79.40
2022-12-26T11:39:34.485Z,79.60
2022-12-26T11:42:09.989Z,79.00
2022-12-26T11:44:42.126Z,79.30
2022-12-26T11:47:14.686Z,79.40
2022-12-26T11:49:50.725Z,78.90
2022-12-26T11:52:37.536Z,78.90
2022-12-26T11:55:31.249Z,79.00
2022-12-26T11:58:02.006Z,79.20
2022-12-26T12:00:30.973Z,79.40
2022-12-26T12:03:00.790Z,79.50
2022-12-26T12:05:42.014Z,79.70
2022-12-26T12:08:36.601Z,79.70
2022-12-26T12:11:23.440Z,80.00
2022-12-26T12:14:15.883Z,79.80
2022-12-26T12:16:57.848Z,79.70
2022-12-26T12:19:39.107Z,79.70
2022-12-26T12:22:24.880Z,79.60
2022-12-26T12:25:09.733Z,79.30
2022-12-26T12:27:43.905Z,79.30
2022-12-26T12:30:19.492Z,78.90
2022-12-26T12:33:11.635Z,78.90
2022-12-26T12:35:54.668Z,79.20
2022-12-26T12:38:35.340Z,79.20
2022-12-26T12:41:35.297Z,79.30
2022-12-26T12:44:09.188Z,79.10
2022-12-26T12:46:47.020Z,78.90
2022-12-26T12:49:28.972Z,78.60
2022-12-26T12:52:06.414Z,78.60
2022-12-26T12:54:59.181Z,78.60
2022-12-26T12:57:34.689Z,78.80
2022-12-26T13:00:15.503Z,79.30
2022-12-26T13:02:48.768Z,79.20
2022-12-26T13:05:23.695Z,79.00
2022-12-26T13:07:58.315Z,79.40
2022-12-26T13:10:30.530Z,78.70
2022-12-26T13:13:00.283Z,78.30
2022-12-26T13:15:36.953Z,78.30
2022-12-26T13:18:11.571Z,78.40
2022-12-26T13:20:43.685Z,77.20
2022-12-26T13:23:38.570Z,77.00
2022-12-26T13:26:20.287Z,74.70
2022-12-26T13:28:59.775Z,74.70
2022-12-26T13:31:35.041Z,73.30
2022-12-26T13:34:04.232Z,71.50
2022-12-26T13:36:45.104Z,67.90
2022-12-26T13:39:38.114Z,61.70
2022-12-26T13:42:44.831Z,62.00
2022-12-26T13:46:01.157Z,60.50
2022-12-26T13:48:56.174Z,61.90
2022-12-26T13:51:48.201Z,61.30
2022-12-26T13:54:18.119Z,62.20
2022-12-26T13:57:12.286Z,61.40
2022-12-26T13:59:45.808Z,61.20
2022-12-26T14:02:58.747Z,61.70
2022-12-26T14:05:31.704Z,60.80
2022-12-26T14:08:07.838Z,60.70
2022-12-26T14:10:44.204Z,61.10
2022-12-26T14:13:34.835Z,62.40
2022-12-26T14:16:09.600Z,63.70
2022-12-26T14:18:46.478Z,64.80
2022-12-26T14:21:37.990Z,65.90
2022-12-26T14:24:19.769Z,66.90
2022-12-26T14:26:57.424Z,67.80
2022-12-26T14:29:32.773Z,68.70
2022-12-26T14:32:16.876Z,69.80
2022-12-26T14:34:58.905Z,70.70
2022-12-26T14:37:36.516Z,71.10
2022-12-26T14:40:19.864Z,72.10
2022-12-26T14:43:14.840Z,73.00
2022-12-26T14:45:51.016Z,73.60
2022-12-26T14:48:52.333Z,74.20
2022-12-26T14:51:33.988Z,74.80
2022-12-26T14:54:37.238Z,75.30
2022-12-26T14:57:44.519Z,76.10
2022-12-26T15:00:25.388Z,76.40
2022-12-26T15:07:23.093Z,78.30
2022-12-26T15:10:34.123Z,79.10
2022-12-26T15:13:43.886Z,79.70
2022-12-26T15:16:24.602Z,80.50
2022-12-26T15:19:42.450Z,81.00
2022-12-26T15:22:52.299Z,81.80
2022-12-26T15:26:05.235Z,82.50
2022-12-26T15:28:55.471Z,83.60
2022-12-26T15:31:46.865Z,83.60
2022-12-26T15:34:56.551Z,83.60
2022-12-26T15:37:39.951Z,84.50
2022-12-26T15:40:15.984Z,84.50
2022-12-26T15:42:57.124Z,84.80
2022-12-26T15:45:34.596Z,85.00
2022-12-26T15:48:12.014Z,86.40
2022-12-26T15:50:53.168Z,85.90
2022-12-26T15:53:33.526Z,86.20
2022-12-26T15:56:36.021Z,86.20
2022-12-26T15:59:30.487Z,86.60
2022-12-26T16:01:59.409Z,86.60
2022-12-26T16:04:34.633Z,87.00
2022-12-26T16:07:24.451Z,87.10
2022-12-26T16:09:54.836Z,87.50
2022-12-26T16:12:28.787Z,87.50
2022-12-26T16:15:16.423Z,87.80
2022-12-26T16:17:46.686Z,87.80
2022-12-26T16:20:42.008Z,88.50
2022-12-26T16:23:15.288Z,88.60
2022-12-26T16:25:50.594Z,89.30
2022-12-26T16:28:27.654Z,89.70
2022-12-26T16:30:57.933Z,90.20
2022-12-26T16:33:27.153Z,90.40
2022-12-26T16:36:00.956Z,90.60
2022-12-26T16:38:32.654Z,90.60
2022-12-26T16:41:01.040Z,90.80
2022-12-26T16:43:30.955Z,91.00
2022-12-26T16:46:02.834Z,91.10
2022-12-26T16:48:33.295Z,91.20
2022-12-26T16:51:05.129Z,91.10
2022-12-26T16:53:46.186Z,91.30
2022-12-26T16:56:27.772Z,91.30
2022-12-26T16:59:04.101Z,91.40
2022-12-26T17:01:34.711Z,91.50
2022-12-26T17:04:06.035Z,91.80
2022-12-26T17:06:39.029Z,91.80
2022-12-26T17:09:10.717Z,91.80
2022-12-26T17:11:51.973Z,91.80
2022-12-26T17:14:24.692Z,91.80
2022-12-26T17:16:59.063Z,92.20
2022-12-26T17:19:30.193Z,92.10
2022-12-26T17:22:31.758Z,92.10
2022-12-26T17:25:23.163Z,92.30
2022-12-26T17:28:25.212Z,92.00
2022-12-26T17:30:54.531Z,91.80
2022-12-26T17:33:41.433Z,91.70
2022-12-26T17:37:19.890Z,91.60
2022-12-26T17:40:21.688Z,91.60
2022-12-26T17:42:52.889Z,92.20
2022-12-26T17:45:24.730Z,92.00
2022-12-26T17:47:53.403Z,92.00
2022-12-26T17:50:22.284Z,91.90
2022-12-26T17:52:50.886Z,92.20
2022-12-26T17:55:22.989Z,92.20
2022-12-26T17:57:51.321Z,92.10
2022-12-26T18:00:23.215Z,92.10
2022-12-26T18:02:51.983Z,91.90
2022-12-26T18:05:21.803Z,91.90
2022-12-26T18:07:53.144Z,91.80
2022-12-26T18:10:23.673Z,91.90
2022-12-26T18:12:55.110Z,91.80
2022-12-26T18:15:25.988Z,91.90
2022-12-26T18:17:54.527Z,91.90
2022-12-26T18:20:24.677Z,91.90
2022-12-26T18:22:53.037Z,91.80
2022-12-26T18:25:23.893Z,91.80
2022-12-26T18:27:53.619Z,91.80
2022-12-26T18:30:25.123Z,91.70
2022-12-26T18:32:54.883Z,91.70
2022-12-26T18:35:23.734Z,91.70
2022-12-26T18:37:54.041Z,92.00
2022-12-26T18:40:33.083Z,92.00
2022-12-26T18:43:01.941Z,92.10
2022-12-26T18:45:32.077Z,92.10
2022-12-26T18:48:01.013Z,92.10
2022-12-26T18:50:30.296Z,92.50
2022-12-26T18:52:58.721Z,92.50
2022-12-26T18:55:28.247Z,92.40
2022-12-26T18:57:56.716Z,92.40
2022-12-26T19:00:27.482Z,92.40
2022-12-26T19:02:57.484Z,92.40
2022-12-26T19:05:27.541Z,92.50
2022-12-26T19:07:56.076Z,92.50
2022-12-26T19:10:27.359Z,92.50
2022-12-26T19:13:02.820Z,92.50
2022-12-26T19:15:33.334Z,92.50
2022-12-26T19:18:03.352Z,92.60
2022-12-26T19:20:31.777Z,92.70
2022-12-26T19:23:00.062Z,92.70
2022-12-26T19:25:29.165Z,92.80
2022-12-26T19:27:58.600Z,92.90
2022-12-26T19:30:33.687Z,92.90
2022-12-26T19:33:08.357Z,92.90
2022-12-26T19:35:36.617Z,93.00
2022-12-26T19:38:05.141Z,93.20
2022-12-26T19:40:33.486Z,93.20
2022-12-26T19:43:01.696Z,93.20
2022-12-26T19:45:30.041Z,93.30
2022-12-26T19:47:58.557Z,93.30
2022-12-26T19:50:28.279Z,93.50
2022-12-26T19:52:56.596Z,93.50
2022-12-26T19:55:30.529Z,93.40
2022-12-26T19:57:58.743Z,93.40
2022-12-26T20:00:27.068Z,93.50
2022-12-26T20:02:55.419Z,93.50
2022-12-26T20:05:23.849Z,93.50
2022-12-26T20:07:53.586Z,93.60
2022-12-26T20:10:21.860Z,93.60
2022-12-26T20:12:50.171Z,93.60
2022-12-26T20:15:18.479Z,93.90
2022-12-26T20:17:48.084Z,93.80
2022-12-26T20:20:37.116Z,93.80
2022-12-26T20:23:06.801Z,93.70
2022-12-26T20:25:36.342Z,93.70
2022-12-26T20:28:04.640Z,93.70
2022-12-26T20:30:32.937Z,93.60
2022-12-26T20:33:01.297Z,93.60
2022-12-26T20:35:32.449Z,93.60
2022-12-26T20:38:00.940Z,93.80
2022-12-26T20:40:30.618Z,93.70
2022-12-26T20:42:58.892Z,93.70
2022-12-26T20:45:27.157Z,93.50
2022-12-26T20:47:55.501Z,93.50
2022-12-26T20:50:24.000Z,93.70
2022-12-26T20:52:52.260Z,93.60
2022-12-26T20:55:20.483Z,93.50
2022-12-26T20:57:50.158Z,93.40
2022-12-26T21:00:18.978Z,93.30
2022-12-26T21:02:47.471Z,93.20
2022-12-26T21:05:15.993Z,93.10
2022-12-26T21:07:45.005Z,93.00
2022-12-26T21:10:14.735Z,93.00
2022-12-26T21:12:43.102Z,92.90
2022-12-26T21:15:12.867Z,92.80
2022-12-26T21:17:41.158Z,92.70
2022-12-26T21:20:10.297Z,92.70
2022-12-26T21:22:38.755Z,92.70
2022-12-26T21:25:07.921Z,92.70
2022-12-26T21:27:39.170Z,92.70
2022-12-26T21:30:10.551Z,92.60
2022-12-26T21:32:40.212Z,92.60
2022-12-26T21:35:08.867Z,92.60
2022-12-26T21:37:52.625Z,92.70
2022-12-26T21:40:23.100Z,92.80
2022-12-26T21:42:51.394Z,92.80
2022-12-26T21:45:19.797Z,92.80
2022-12-26T21:47:49.469Z,92.90
2022-12-26T21:50:17.858Z,93.20
2022-12-26T21:52:46.098Z,93.30
2022-12-26T21:55:28.185Z,93.40
2022-12-26T21:57:57.233Z,93.40
2022-12-26T22:00:25.743Z,93.50
2022-12-26T22:03:12.523Z,93.80
2022-12-26T22:05:42.629Z,93.80
2022-12-26T22:08:12.387Z,93.80
2022-12-26T22:11:01.122Z,93.80
2022-12-26T22:13:32.227Z,93.70
2022-12-26T22:16:07.590Z,93.70
2022-12-26T22:18:39.857Z,93.70
2022-12-26T22:21:10.560Z,93.60
2022-12-26T22:23:39.598Z,93.70
2022-12-26T22:26:09.071Z,93.70
2022-12-26T22:28:37.411Z,93.70
2022-12-26T22:31:08.376Z,93.70
2022-12-26T22:33:38.048Z,93.80
2022-12-26T22:36:07.711Z,93.80
2022-12-26T22:38:36.491Z,93.80
2022-12-26T22:41:08.229Z,93.90
2022-12-26T22:43:37.228Z,93.90
2022-12-26T22:46:05.697Z,93.90
2022-12-26T22:48:34.102Z,93.90
2022-12-26T22:51:03.877Z,94.00
2022-12-26T22:53:32.586Z,94.00
2022-12-26T22:56:02.775Z,94.00
2022-12-26T22:58:32.789Z,94.00
2022-12-26T23:01:01.359Z,94.00
2022-12-26T23:03:30.552Z,94.30
2022-12-26T23:05:59.400Z,94.30
2022-12-26T23:08:29.827Z,94.40
2022-12-26T23:10:59.658Z,94.40
2022-12-26T23:13:28.394Z,94.40
2022-12-26T23:16:00.641Z,94.70
2022-12-26T23:18:53.631Z,94.60
2022-12-26T23:21:43.143Z,94.50
2022-12-26T23:24:16.802Z,94.40
2022-12-26T23:26:48.149Z,94.40
2022-12-26T23:29:35.823Z,94.40
2022-12-26T23:32:04.448Z,94.30
2022-12-26T23:34:32.792Z,94.20
2022-12-26T23:37:01.180Z,94.20
2022-12-26T23:39:31.128Z,94.20
2022-12-26T23:41:59.410Z,94.20
2022-12-26T23:44:27.683Z,94.20
2022-12-26T23:46:56.021Z,94.10
2022-12-26T23:49:24.305Z,94.10
2022-12-26T23:51:52.578Z,94.30
2022-12-26T23:54:20.872Z,94.20
2022-12-26T23:56:50.551Z,94.20
2022-12-26T23:59:19.102Z,94.20
